sensor_id;sensor_type;location;lat;lon;timestamp;P1;durP1;ratioP1;P2;durP2;ratioP2
52512;SDS011;38422;53.172;6.974;2023-11-21T00:01:01;22.20;;;6.97;;
52512;SDS011;38422;53.172;6.974;2023-11-21T00:03:29;20.02;;;6.45;;
52512;SDS011;38422;53.172;6.974;2023-11-21T00:05:55;21.23;;;5.73;;
52512;SDS011;38422;53.172;6.974;2023-11-21T00:08:21;24.33;;;5.60;;
52512;SDS011;38422;53.172;6.974;2023-11-21T00:10:47;25.25;;;5.45;;
52512;SDS011;38422;53.172;6.974;2023-11-21T00:13:13;18.58;;;5.18;;
52512;SDS011;38422;53.172;6.974;2023-11-21T00:15:39;21.70;;;5.53;;
52512;SDS011;38422;53.172;6.974;2023-11-21T00:18:05;25.35;;;5.57;;
52512;SDS011;38422;53.172;6.974;2023-11-21T00:20:31;26.08;;;6.07;;
52512;SDS011;38422;53.172;6.974;2023-11-21T00:22:57;24.35;;;5.40;;
52512;SDS011;38422;53.172;6.974;2023-11-21T00:25:24;32.33;;;6.03;;
52512;SDS011;38422;53.172;6.974;2023-11-21T00:27:50;21.13;;;6.07;;
52512;SDS011;38422;53.172;6.974;2023-11-21T00:30:16;23.40;;;5.60;;
52512;SDS011;38422;53.172;6.974;2023-11-21T00:32:42;21.77;;;5.68;;
52512;SDS011;38422;53.172;6.974;2023-11-21T00:35:08;24.45;;;5.68;;
52512;SDS011;38422;53.172;6.974;2023-11-21T00:37:34;24.30;;;5.60;;
52512;SDS011;38422;53.172;6.974;2023-11-21T00:39:59;22.27;;;5.78;;
52512;SDS011;38422;53.172;6.974;2023-11-21T00:42:28;23.17;;;6.15;;
52512;SDS011;38422;53.172;6.974;2023-11-21T00:44:54;31.92;;;6.57;;
52512;SDS011;38422;53.172;6.974;2023-11-21T00:47:19;25.42;;;5.95;;
52512;SDS011;38422;53.172;6.974;2023-11-21T00:49:45;21.30;;;6.35;;
52512;SDS011;38422;53.172;6.974;2023-11-21T00:52:11;23.88;;;6.43;;
52512;SDS011;38422;53.172;6.974;2023-11-21T00:54:37;24.30;;;6.55;;
52512;SDS011;38422;53.172;6.974;2023-11-21T00:57:02;27.23;;;7.00;;
52512;SDS011;38422;53.172;6.974;2023-11-21T00:59:28;25.77;;;6.28;;
52512;SDS011;38422;53.172;6.974;2023-11-21T01:01:55;24.60;;;6.63;;
52512;SDS011;38422;53.172;6.974;2023-11-21T01:04:21;22.33;;;6.43;;
52512;SDS011;38422;53.172;6.974;2023-11-21T01:06:47;22.00;;;6.28;;
52512;SDS011;38422;53.172;6.974;2023-11-21T01:09:12;20.63;;;6.35;;
52512;SDS011;38422;53.172;6.974;2023-11-21T01:11:38;29.88;;;7.57;;
52512;SDS011;38422;53.172;6.974;2023-11-21T01:14:04;21.60;;;6.75;;
52512;SDS011;38422;53.172;6.974;2023-11-21T01:16:31;23.67;;;6.55;;
52512;SDS011;38422;53.172;6.974;2023-11-21T01:18:59;17.73;;;6.75;;
52512;SDS011;38422;53.172;6.974;2023-11-21T01:21:26;26.83;;;7.28;;
52512;SDS011;38422;53.172;6.974;2023-11-21T01:23:53;30.30;;;8.13;;
52512;SDS011;38422;53.172;6.974;2023-11-21T01:26:20;23.98;;;7.47;;
52512;SDS011;38422;53.172;6.974;2023-11-21T01:28:46;26.85;;;7.55;;
52512;SDS011;38422;53.172;6.974;2023-11-21T01:31:14;28.65;;;8.77;;
52512;SDS011;38422;53.172;6.974;2023-11-21T01:33:40;26.23;;;8.43;;
52512;SDS011;38422;53.172;6.974;2023-11-21T01:36:06;24.95;;;8.68;;
52512;SDS011;38422;53.172;6.974;2023-11-21T01:38:32;23.27;;;8.48;;
52512;SDS011;38422;53.172;6.974;2023-11-21T01:40:58;26.02;;;8.20;;
52512;SDS011;38422;53.172;6.974;2023-11-21T01:45:51;26.67;;;9.40;;
52512;SDS011;38422;53.172;6.974;2023-11-21T01:48:21;24.40;;;8.70;;
52512;SDS011;38422;53.172;6.974;2023-11-21T01:50:48;28.13;;;9.70;;
52512;SDS011;38422;53.172;6.974;2023-11-21T01:53:14;32.13;;;9.82;;
52512;SDS011;38422;53.172;6.974;2023-11-21T01:55:40;29.25;;;9.75;;
52512;SDS011;38422;53.172;6.974;2023-11-21T02:00:33;29.08;;;10.10;;
52512;SDS011;38422;53.172;6.974;2023-11-21T02:03:00;29.27;;;10.43;;
52512;SDS011;38422;53.172;6.974;2023-11-21T02:05:25;33.63;;;10.45;;
52512;SDS011;38422;53.172;6.974;2023-11-21T02:07:51;31.55;;;10.30;;
52512;SDS011;38422;53.172;6.974;2023-11-21T02:10:17;28.65;;;10.82;;
52512;SDS011;38422;53.172;6.974;2023-11-21T02:12:48;29.52;;;10.80;;
52512;SDS011;38422;53.172;6.974;2023-11-21T02:15:15;35.38;;;10.38;;
52512;SDS011;38422;53.172;6.974;2023-11-21T02:17:45;28.55;;;10.60;;
52512;SDS011;38422;53.172;6.974;2023-11-21T02:20:16;37.55;;;10.82;;
52512;SDS011;38422;53.172;6.974;2023-11-21T02:22:52;37.55;;;12.20;;
52512;SDS011;38422;53.172;6.974;2023-11-21T02:25:25;31.30;;;10.73;;
52512;SDS011;38422;53.172;6.974;2023-11-21T02:27:56;35.30;;;10.90;;
52512;SDS011;38422;53.172;6.974;2023-11-21T02:30:23;31.02;;;11.73;;
52512;SDS011;38422;53.172;6.974;2023-11-21T02:32:50;31.48;;;11.77;;
52512;SDS011;38422;53.172;6.974;2023-11-21T02:35:22;35.38;;;11.90;;
52512;SDS011;38422;53.172;6.974;2023-11-21T02:37:51;37.05;;;12.90;;
52512;SDS011;38422;53.172;6.974;2023-11-21T02:40:18;35.97;;;12.10;;
52512;SDS011;38422;53.172;6.974;2023-11-21T02:45:12;39.72;;;12.05;;
52512;SDS011;38422;53.172;6.974;2023-11-21T02:47:41;36.75;;;12.93;;
52512;SDS011;38422;53.172;6.974;2023-11-21T02:50:10;44.20;;;12.25;;
52512;SDS011;38422;53.172;6.974;2023-11-21T02:52:36;42.97;;;12.10;;
52512;SDS011;38422;53.172;6.974;2023-11-21T02:55:02;36.92;;;12.73;;
52512;SDS011;38422;53.172;6.974;2023-11-21T02:57:28;37.03;;;11.95;;
52512;SDS011;38422;53.172;6.974;2023-11-21T02:59:54;36.72;;;12.70;;
52512;SDS011;38422;53.172;6.974;2023-11-21T03:02:20;42.63;;;12.80;;
52512;SDS011;38422;53.172;6.974;2023-11-21T03:04:45;39.60;;;14.38;;
52512;SDS011;38422;53.172;6.974;2023-11-21T03:07:14;39.00;;;13.48;;
52512;SDS011;38422;53.172;6.974;2023-11-21T03:09:40;45.55;;;13.73;;
52512;SDS011;38422;53.172;6.974;2023-11-21T03:12:06;41.38;;;14.10;;
52512;SDS011;38422;53.172;6.974;2023-11-21T03:14:31;47.22;;;14.60;;
52512;SDS011;38422;53.172;6.974;2023-11-21T03:16:57;40.80;;;14.27;;
52512;SDS011;38422;53.172;6.974;2023-11-21T03:19:23;49.35;;;15.68;;
52512;SDS011;38422;53.172;6.974;2023-11-21T03:21:48;42.83;;;14.40;;
52512;SDS011;38422;53.172;6.974;2023-11-21T03:24:14;47.97;;;15.43;;
52512;SDS011;38422;53.172;6.974;2023-11-21T03:26:45;49.55;;;17.02;;
52512;SDS011;38422;53.172;6.974;2023-11-21T03:29:11;54.22;;;16.73;;
52512;SDS011;38422;53.172;6.974;2023-11-21T03:31:37;54.00;;;16.23;;
52512;SDS011;38422;53.172;6.974;2023-11-21T03:34:03;54.50;;;15.85;;
52512;SDS011;38422;53.172;6.974;2023-11-21T03:36:32;48.78;;;16.25;;
52512;SDS011;38422;53.172;6.974;2023-11-21T03:38:58;44.15;;;15.70;;
52512;SDS011;38422;53.172;6.974;2023-11-21T03:41:23;55.83;;;17.65;;
52512;SDS011;38422;53.172;6.974;2023-11-21T03:43:49;48.78;;;16.23;;
52512;SDS011;38422;53.172;6.974;2023-11-21T03:46:15;44.40;;;16.20;;
52512;SDS011;38422;53.172;6.974;2023-11-21T03:48:40;46.58;;;15.98;;
52512;SDS011;38422;53.172;6.974;2023-11-21T03:51:07;47.85;;;16.23;;
52512;SDS011;38422;53.172;6.974;2023-11-21T03:53:32;50.47;;;16.80;;
52512;SDS011;38422;53.172;6.974;2023-11-21T03:55:58;50.08;;;16.40;;
52512;SDS011;38422;53.172;6.974;2023-11-21T03:58:24;47.55;;;15.73;;
52512;SDS011;38422;53.172;6.974;2023-11-21T04:00:49;53.35;;;15.80;;
52512;SDS011;38422;53.172;6.974;2023-11-21T04:03:15;52.45;;;16.25;;
52512;SDS011;38422;53.172;6.974;2023-11-21T04:05:41;44.50;;;14.80;;
52512;SDS011;38422;53.172;6.974;2023-11-21T04:08:06;54.88;;;15.95;;
52512;SDS011;38422;53.172;6.974;2023-11-21T04:10:32;47.70;;;16.38;;
52512;SDS011;38422;53.172;6.974;2023-11-21T04:12:58;52.28;;;15.57;;
52512;SDS011;38422;53.172;6.974;2023-11-21T04:15:25;48.53;;;15.13;;
52512;SDS011;38422;53.172;6.974;2023-11-21T04:17:51;46.80;;;14.35;;
52512;SDS011;38422;53.172;6.974;2023-11-21T04:20:17;41.92;;;14.35;;
52512;SDS011;38422;53.172;6.974;2023-11-21T04:22:43;44.38;;;14.48;;
52512;SDS011;38422;53.172;6.974;2023-11-21T04:25:10;42.33;;;14.73;;
52512;SDS011;38422;53.172;6.974;2023-11-21T04:27:36;47.70;;;15.50;;
52512;SDS011;38422;53.172;6.974;2023-11-21T04:30:05;52.60;;;15.10;;
52512;SDS011;38422;53.172;6.974;2023-11-21T04:32:31;48.08;;;14.10;;
52512;SDS011;38422;53.172;6.974;2023-11-21T04:34:56;46.25;;;15.80;;
52512;SDS011;38422;53.172;6.974;2023-11-21T04:37:22;53.95;;;15.73;;
52512;SDS011;38422;53.172;6.974;2023-11-21T04:39:49;57.27;;;15.27;;
52512;SDS011;38422;53.172;6.974;2023-11-21T04:42:15;53.88;;;14.88;;
52512;SDS011;38422;53.172;6.974;2023-11-21T04:44:40;52.45;;;15.15;;
52512;SDS011;38422;53.172;6.974;2023-11-21T04:47:06;51.05;;;15.02;;
52512;SDS011;38422;53.172;6.974;2023-11-21T04:49:32;55.83;;;15.80;;
52512;SDS011;38422;53.172;6.974;2023-11-21T04:51:58;55.03;;;15.75;;
52512;SDS011;38422;53.172;6.974;2023-11-21T04:54:24;60.00;;;15.98;;
52512;SDS011;38422;53.172;6.974;2023-11-21T04:56:50;60.47;;;15.52;;
52512;SDS011;38422;53.172;6.974;2023-11-21T04:59:16;53.60;;;15.32;;
52512;SDS011;38422;53.172;6.974;2023-11-21T05:01:41;51.72;;;15.13;;
52512;SDS011;38422;53.172;6.974;2023-11-21T05:04:07;43.85;;;12.52;;
52512;SDS011;38422;53.172;6.974;2023-11-21T05:06:34;42.83;;;13.45;;
52512;SDS011;38422;53.172;6.974;2023-11-21T05:08:59;36.28;;;12.23;;
52512;SDS011;38422;53.172;6.974;2023-11-21T05:11:26;33.85;;;11.25;;
52512;SDS011;38422;53.172;6.974;2023-11-21T05:13:52;36.10;;;11.38;;
52512;SDS011;38422;53.172;6.974;2023-11-21T05:16:21;39.13;;;12.15;;
52512;SDS011;38422;53.172;6.974;2023-11-21T05:18:47;40.28;;;11.95;;
52512;SDS011;38422;53.172;6.974;2023-11-21T05:21:15;46.17;;;12.95;;
52512;SDS011;38422;53.172;6.974;2023-11-21T05:23:41;48.63;;;12.45;;
52512;SDS011;38422;53.172;6.974;2023-11-21T05:26:06;43.75;;;11.98;;
52512;SDS011;38422;53.172;6.974;2023-11-21T05:28:32;40.63;;;11.98;;
52512;SDS011;38422;53.172;6.974;2023-11-21T05:30:58;41.10;;;11.90;;
52512;SDS011;38422;53.172;6.974;2023-11-21T05:33:24;44.88;;;12.48;;
52512;SDS011;38422;53.172;6.974;2023-11-21T05:35:50;45.15;;;12.73;;
52512;SDS011;38422;53.172;6.974;2023-11-21T05:38:16;35.40;;;12.27;;
52512;SDS011;38422;53.172;6.974;2023-11-21T05:40:41;52.38;;;13.23;;
52512;SDS011;38422;53.172;6.974;2023-11-21T05:43:08;39.03;;;12.02;;
52512;SDS011;38422;53.172;6.974;2023-11-21T05:45:34;41.42;;;13.20;;
52512;SDS011;38422;53.172;6.974;2023-11-21T05:48:00;34.50;;;11.95;;
52512;SDS011;38422;53.172;6.974;2023-11-21T05:50:25;35.88;;;12.38;;
52512;SDS011;38422;53.172;6.974;2023-11-21T05:52:51;32.05;;;11.60;;
52512;SDS011;38422;53.172;6.974;2023-11-21T05:55:17;35.67;;;11.93;;
52512;SDS011;38422;53.172;6.974;2023-11-21T05:57:43;38.42;;;13.02;;
52512;SDS011;38422;53.172;6.974;2023-11-21T06:00:13;33.53;;;12.00;;
52512;SDS011;38422;53.172;6.974;2023-11-21T06:02:47;32.33;;;11.32;;
52512;SDS011;38422;53.172;6.974;2023-11-21T06:05:15;33.55;;;11.77;;
52512;SDS011;38422;53.172;6.974;2023-11-21T06:07:43;30.13;;;11.52;;
52512;SDS011;38422;53.172;6.974;2023-11-21T06:10:10;31.50;;;11.98;;
52512;SDS011;38422;53.172;6.974;2023-11-21T06:12:38;32.67;;;12.23;;
52512;SDS011;38422;53.172;6.974;2023-11-21T06:17:33;35.53;;;13.05;;
52512;SDS011;38422;53.172;6.974;2023-11-21T06:20:05;35.35;;;13.05;;
52512;SDS011;38422;53.172;6.974;2023-11-21T06:22:40;34.47;;;12.70;;
52512;SDS011;38422;53.172;6.974;2023-11-21T06:25:07;31.08;;;11.77;;
52512;SDS011;38422;53.172;6.974;2023-11-21T06:27:37;29.05;;;11.93;;
52512;SDS011;38422;53.172;6.974;2023-11-21T06:30:05;32.20;;;12.38;;
52512;SDS011;38422;53.172;6.974;2023-11-21T06:32:31;29.92;;;12.25;;
52512;SDS011;38422;53.172;6.974;2023-11-21T06:34:57;37.40;;;13.50;;
52512;SDS011;38422;53.172;6.974;2023-11-21T06:37:29;38.97;;;14.55;;
52512;SDS011;38422;53.172;6.974;2023-11-21T06:39:55;34.97;;;13.65;;
52512;SDS011;38422;53.172;6.974;2023-11-21T06:42:23;34.92;;;13.98;;
52512;SDS011;38422;53.172;6.974;2023-11-21T06:44:49;34.25;;;13.88;;
52512;SDS011;38422;53.172;6.974;2023-11-21T06:47:19;37.42;;;13.63;;
52512;SDS011;38422;53.172;6.974;2023-11-21T06:49:45;36.63;;;14.50;;
52512;SDS011;38422;53.172;6.974;2023-11-21T06:52:14;36.67;;;14.82;;
52512;SDS011;38422;53.172;6.974;2023-11-21T06:54:40;33.67;;;14.20;;
52512;SDS011;38422;53.172;6.974;2023-11-21T06:57:05;31.10;;;13.77;;
52512;SDS011;38422;53.172;6.974;2023-11-21T06:59:31;34.92;;;14.63;;
52512;SDS011;38422;53.172;6.974;2023-11-21T07:01:57;36.97;;;15.07;;
52512;SDS011;38422;53.172;6.974;2023-11-21T07:04:25;39.50;;;15.95;;
52512;SDS011;38422;53.172;6.974;2023-11-21T07:06:52;40.13;;;16.83;;
52512;SDS011;38422;53.172;6.974;2023-11-21T07:09:18;38.50;;;17.08;;
52512;SDS011;38422;53.172;6.974;2023-11-21T07:11:47;36.25;;;16.67;;
52512;SDS011;38422;53.172;6.974;2023-11-21T07:14:13;41.08;;;17.30;;
52512;SDS011;38422;53.172;6.974;2023-11-21T07:16:39;37.45;;;17.55;;
52512;SDS011;38422;53.172;6.974;2023-11-21T07:19:05;37.30;;;17.17;;
52512;SDS011;38422;53.172;6.974;2023-11-21T07:21:35;41.28;;;17.70;;
52512;SDS011;38422;53.172;6.974;2023-11-21T07:24:02;36.22;;;18.05;;
52512;SDS011;38422;53.172;6.974;2023-11-21T07:26:28;37.55;;;17.75;;
52512;SDS011;38422;53.172;6.974;2023-11-21T07:28:54;36.30;;;18.17;;
52512;SDS011;38422;53.172;6.974;2023-11-21T07:31:23;33.65;;;17.90;;
52512;SDS011;38422;53.172;6.974;2023-11-21T07:33:49;33.50;;;17.25;;
52512;SDS011;38422;53.172;6.974;2023-11-21T07:36:16;35.33;;;17.33;;
52512;SDS011;38422;53.172;6.974;2023-11-21T07:38:51;31.50;;;16.55;;
52512;SDS011;38422;53.172;6.974;2023-11-21T07:41:17;28.55;;;16.40;;
52512;SDS011;38422;53.172;6.974;2023-11-21T07:43:44;29.35;;;16.52;;
52512;SDS011;38422;53.172;6.974;2023-11-21T07:46:10;30.60;;;16.75;;
52512;SDS011;38422;53.172;6.974;2023-11-21T07:48:40;30.98;;;16.92;;
52512;SDS011;38422;53.172;6.974;2023-11-21T07:51:07;30.23;;;17.05;;
52512;SDS011;38422;53.172;6.974;2023-11-21T07:53:34;27.63;;;16.43;;
52512;SDS011;38422;53.172;6.974;2023-11-21T07:56:04;28.33;;;17.13;;
52512;SDS011;38422;53.172;6.974;2023-11-21T07:58:30;28.23;;;16.48;;
52512;SDS011;38422;53.172;6.974;2023-11-21T08:00:58;28.63;;;16.77;;
52512;SDS011;38422;53.172;6.974;2023-11-21T08:03:24;30.00;;;17.13;;
52512;SDS011;38422;53.172;6.974;2023-11-21T08:05:51;27.33;;;16.92;;
52512;SDS011;38422;53.172;6.974;2023-11-21T08:08:17;28.80;;;17.63;;
52512;SDS011;38422;53.172;6.974;2023-11-21T08:10:44;29.40;;;18.48;;
52512;SDS011;38422;53.172;6.974;2023-11-21T08:13:21;30.17;;;18.38;;
52512;SDS011;38422;53.172;6.974;2023-11-21T08:15:53;29.15;;;17.20;;
52512;SDS011;38422;53.172;6.974;2023-11-21T08:18:19;29.73;;;17.35;;
52512;SDS011;38422;53.172;6.974;2023-11-21T08:20:45;28.05;;;16.63;;
52512;SDS011;38422;53.172;6.974;2023-11-21T08:23:13;28.27;;;16.88;;
52512;SDS011;38422;53.172;6.974;2023-11-21T08:25:45;29.67;;;17.05;;
52512;SDS011;38422;53.172;6.974;2023-11-21T08:28:11;28.67;;;17.38;;
52512;SDS011;38422;53.172;6.974;2023-11-21T08:30:39;28.48;;;16.75;;
52512;SDS011;38422;53.172;6.974;2023-11-21T08:33:06;32.92;;;18.10;;
52512;SDS011;38422;53.172;6.974;2023-11-21T08:35:33;29.35;;;16.58;;
52512;SDS011;38422;53.172;6.974;2023-11-21T08:37:59;24.98;;;15.82;;
52512;SDS011;38422;53.172;6.974;2023-11-21T08:40:25;28.05;;;16.27;;
52512;SDS011;38422;53.172;6.974;2023-11-21T08:42:51;28.45;;;16.35;;
52512;SDS011;38422;53.172;6.974;2023-11-21T08:45:18;24.83;;;14.48;;
52512;SDS011;38422;53.172;6.974;2023-11-21T08:47:44;24.92;;;14.52;;
52512;SDS011;38422;53.172;6.974;2023-11-21T08:50:10;26.75;;;15.30;;
52512;SDS011;38422;53.172;6.974;2023-11-21T08:52:37;24.13;;;14.93;;
52512;SDS011;38422;53.172;6.974;2023-11-21T08:55:07;27.05;;;14.98;;
52512;SDS011;38422;53.172;6.974;2023-11-21T08:57:36;23.85;;;14.13;;
52512;SDS011;38422;53.172;6.974;2023-11-21T09:00:03;23.40;;;14.15;;
52512;SDS011;38422;53.172;6.974;2023-11-21T09:02:33;22.02;;;13.35;;
52512;SDS011;38422;53.172;6.974;2023-11-21T09:05:02;21.48;;;12.27;;
52512;SDS011;38422;53.172;6.974;2023-11-21T09:07:29;23.35;;;12.68;;
52512;SDS011;38422;53.172;6.974;2023-11-21T09:09:55;20.17;;;11.43;;
52512;SDS011;38422;53.172;6.974;2023-11-21T09:12:21;17.52;;;10.90;;
52512;SDS011;38422;53.172;6.974;2023-11-21T09:14:47;18.13;;;10.63;;
52512;SDS011;38422;53.172;6.974;2023-11-21T09:17:14;18.80;;;10.43;;
52512;SDS011;38422;53.172;6.974;2023-11-21T09:19:40;17.40;;;10.45;;
52512;SDS011;38422;53.172;6.974;2023-11-21T09:22:06;14.55;;;8.45;;
52512;SDS011;38422;53.172;6.974;2023-11-21T09:24:32;14.38;;;8.73;;
52512;SDS011;38422;53.172;6.974;2023-11-21T09:26:59;14.07;;;8.50;;
52512;SDS011;38422;53.172;6.974;2023-11-21T09:29:28;14.80;;;8.38;;
52512;SDS011;38422;53.172;6.974;2023-11-21T09:31:54;13.65;;;8.75;;
52512;SDS011;38422;53.172;6.974;2023-11-21T09:34:21;12.50;;;7.50;;
52512;SDS011;38422;53.172;6.974;2023-11-21T09:36:47;14.95;;;8.20;;
52512;SDS011;38422;53.172;6.974;2023-11-21T09:39:16;12.40;;;7.95;;
52512;SDS011;38422;53.172;6.974;2023-11-21T09:44:20;14.60;;;8.30;;
52512;SDS011;38422;53.172;6.974;2023-11-21T09:46:56;12.43;;;8.07;;
52512;SDS011;38422;53.172;6.974;2023-11-21T09:49:25;13.90;;;8.30;;
52512;SDS011;38422;53.172;6.974;2023-11-21T09:54:20;13.57;;;7.50;;
52512;SDS011;38422;53.172;6.974;2023-11-21T09:56:46;15.80;;;8.33;;
52512;SDS011;38422;53.172;6.974;2023-11-21T09:59:13;17.40;;;8.27;;
52512;SDS011;38422;53.172;6.974;2023-11-21T10:01:40;21.60;;;9.55;;
52512;SDS011;38422;53.172;6.974;2023-11-21T10:04:08;14.38;;;7.93;;
52512;SDS011;38422;53.172;6.974;2023-11-21T10:06:40;14.13;;;8.43;;
52512;SDS011;38422;53.172;6.974;2023-11-21T10:09:11;16.48;;;8.57;;
52512;SDS011;38422;53.172;6.974;2023-11-21T10:11:42;12.85;;;8.43;;
52512;SDS011;38422;53.172;6.974;2023-11-21T10:14:11;13.70;;;9.00;;
52512;SDS011;38422;53.172;6.974;2023-11-21T10:16:39;13.18;;;8.23;;
52512;SDS011;38422;53.172;6.974;2023-11-21T10:24:01;13.45;;;8.20;;
52512;SDS011;38422;53.172;6.974;2023-11-21T10:26:28;15.45;;;9.02;;
52512;SDS011;38422;53.172;6.974;2023-11-21T10:29:01;15.98;;;8.73;;
52512;SDS011;38422;53.172;6.974;2023-11-21T10:31:30;14.00;;;8.27;;
52512;SDS011;38422;53.172;6.974;2023-11-21T10:34:11;14.10;;;8.32;;
52512;SDS011;38422;53.172;6.974;2023-11-21T10:36:40;13.43;;;8.20;;
52512;SDS011;38422;53.172;6.974;2023-11-21T10:39:06;12.27;;;7.50;;
52512;SDS011;38422;53.172;6.974;2023-11-21T10:41:33;13.77;;;7.93;;
52512;SDS011;38422;53.172;6.974;2023-11-21T10:44:00;15.27;;;7.97;;
52512;SDS011;38422;53.172;6.974;2023-11-21T10:46:29;14.32;;;7.97;;
52512;SDS011;38422;53.172;6.974;2023-11-21T10:48:55;13.38;;;7.72;;
52512;SDS011;38422;53.172;6.974;2023-11-21T10:51:22;13.77;;;8.18;;
52512;SDS011;38422;53.172;6.974;2023-11-21T10:53:51;13.88;;;8.15;;
52512;SDS011;38422;53.172;6.974;2023-11-21T10:56:17;12.77;;;8.32;;
52512;SDS011;38422;53.172;6.974;2023-11-21T10:58:46;13.55;;;8.25;;
52512;SDS011;38422;53.172;6.974;2023-11-21T11:01:19;12.00;;;7.65;;
52512;SDS011;38422;53.172;6.974;2023-11-21T11:03:46;14.27;;;7.15;;
52512;SDS011;38422;53.172;6.974;2023-11-21T11:06:14;12.48;;;7.13;;
52512;SDS011;38422;53.172;6.974;2023-11-21T11:08:40;12.20;;;7.45;;
52512;SDS011;38422;53.172;6.974;2023-11-21T11:11:06;13.05;;;7.30;;
52512;SDS011;38422;53.172;6.974;2023-11-21T11:13:32;11.52;;;6.78;;
52512;SDS011;38422;53.172;6.974;2023-11-21T11:15:58;12.75;;;7.38;;
52512;SDS011;38422;53.172;6.974;2023-11-21T11:18:29;13.70;;;7.60;;
52512;SDS011;38422;53.172;6.974;2023-11-21T11:20:57;12.65;;;7.53;;
52512;SDS011;38422;53.172;6.974;2023-11-21T11:35:06;12.27;;;7.18;;
52512;SDS011;38422;53.172;6.974;2023-11-21T11:37:42;12.07;;;7.13;;
52512;SDS011;38422;53.172;6.974;2023-11-21T11:40:10;13.10;;;7.10;;
52512;SDS011;38422;53.172;6.974;2023-11-21T11:42:36;11.20;;;6.85;;
52512;SDS011;38422;53.172;6.974;2023-11-21T11:45:02;10.75;;;6.70;;
52512;SDS011;38422;53.172;6.974;2023-11-21T11:47:44;12.98;;;6.60;;
52512;SDS011;38422;53.172;6.974;2023-11-21T11:50:12;10.75;;;6.63;;
52512;SDS011;38422;53.172;6.974;2023-11-21T11:52:45;10.65;;;5.80;;
52512;SDS011;38422;53.172;6.974;2023-11-21T11:55:13;12.48;;;6.68;;
52512;SDS011;38422;53.172;6.974;2023-11-21T11:57:43;12.70;;;6.53;;
52512;SDS011;38422;53.172;6.974;2023-11-21T12:02:42;15.15;;;7.10;;
52512;SDS011;38422;53.172;6.974;2023-11-21T12:05:18;10.27;;;6.43;;
52512;SDS011;38422;53.172;6.974;2023-11-21T12:07:46;11.43;;;6.28;;
52512;SDS011;38422;53.172;6.974;2023-11-21T12:10:16;13.57;;;6.82;;
52512;SDS011;38422;53.172;6.974;2023-11-21T12:12:47;10.52;;;6.13;;
52512;SDS011;38422;53.172;6.974;2023-11-21T12:15:23;10.20;;;6.22;;
52512;SDS011;38422;53.172;6.974;2023-11-21T12:17:50;11.32;;;6.55;;
52512;SDS011;38422;53.172;6.974;2023-11-21T12:20:21;10.20;;;5.97;;
52512;SDS011;38422;53.172;6.974;2023-11-21T12:22:58;9.93;;;6.22;;
52512;SDS011;38422;53.172;6.974;2023-11-21T12:25:25;9.85;;;5.93;;
52512;SDS011;38422;53.172;6.974;2023-11-21T12:27:56;11.10;;;6.53;;
52512;SDS011;38422;53.172;6.974;2023-11-21T12:30:23;11.63;;;5.90;;
52512;SDS011;38422;53.172;6.974;2023-11-21T12:32:54;9.40;;;5.90;;
52512;SDS011;38422;53.172;6.974;2023-11-21T12:37:52;10.30;;;6.57;;
52512;SDS011;38422;53.172;6.974;2023-11-21T12:40:18;9.65;;;5.95;;
52512;SDS011;38422;53.172;6.974;2023-11-21T12:42:45;12.73;;;6.85;;
52512;SDS011;38422;53.172;6.974;2023-11-21T12:47:52;12.05;;;6.25;;
52512;SDS011;38422;53.172;6.974;2023-11-21T12:50:28;11.23;;;6.18;;
52512;SDS011;38422;53.172;6.974;2023-11-21T12:52:59;12.15;;;6.25;;
52512;SDS011;38422;53.172;6.974;2023-11-21T12:55:29;10.88;;;6.20;;
52512;SDS011;38422;53.172;6.974;2023-11-21T12:57:57;12.43;;;6.68;;
52512;SDS011;38422;53.172;6.974;2023-11-21T13:00:33;10.13;;;6.20;;
52512;SDS011;38422;53.172;6.974;2023-11-21T13:03:05;12.75;;;6.03;;
52512;SDS011;38422;53.172;6.974;2023-11-21T13:05:33;11.55;;;7.05;;
52512;SDS011;38422;53.172;6.974;2023-11-21T13:08:04;10.13;;;5.90;;
52512;SDS011;38422;53.172;6.974;2023-11-21T13:10:34;10.52;;;6.05;;
52512;SDS011;38422;53.172;6.974;2023-11-21T13:13:05;9.82;;;6.22;;
52512;SDS011;38422;53.172;6.974;2023-11-21T13:15:34;10.77;;;6.07;;
52512;SDS011;38422;53.172;6.974;2023-11-21T13:18:03;10.35;;;6.25;;
52512;SDS011;38422;53.172;6.974;2023-11-21T13:20:29;9.55;;;6.20;;
52512;SDS011;38422;53.172;6.974;2023-11-21T13:22:55;10.88;;;5.75;;
52512;SDS011;38422;53.172;6.974;2023-11-21T13:25:24;13.77;;;6.47;;
52512;SDS011;38422;53.172;6.974;2023-11-21T13:27:57;11.63;;;6.30;;
52512;SDS011;38422;53.172;6.974;2023-11-21T13:30:27;12.98;;;6.13;;
52512;SDS011;38422;53.172;6.974;2023-11-21T13:32:59;11.70;;;6.20;;
52512;SDS011;38422;53.172;6.974;2023-11-21T13:35:30;11.05;;;6.18;;
52512;SDS011;38422;53.172;6.974;2023-11-21T13:38:33;11.30;;;5.90;;
52512;SDS011;38422;53.172;6.974;2023-11-21T13:40:57;11.50;;;5.88;;
52512;SDS011;38422;53.172;6.974;2023-11-21T13:43:24;11.43;;;6.17;;
52512;SDS011;38422;53.172;6.974;2023-11-21T13:45:51;9.35;;;5.97;;
52512;SDS011;38422;53.172;6.974;2023-11-21T13:48:35;10.02;;;6.20;;
52512;SDS011;38422;53.172;6.974;2023-11-21T13:51:07;12.10;;;6.10;;
52512;SDS011;38422;53.172;6.974;2023-11-21T13:53:41;12.43;;;5.93;;
52512;SDS011;38422;53.172;6.974;2023-11-21T13:56:07;9.03;;;5.50;;
52512;SDS011;38422;53.172;6.974;2023-11-21T13:58:34;9.15;;;5.10;;
52512;SDS011;38422;53.172;6.974;2023-11-21T14:01:20;12.45;;;5.25;;
52512;SDS011;38422;53.172;6.974;2023-11-21T14:04:00;7.50;;;4.70;;
52512;SDS011;38422;53.172;6.974;2023-11-21T14:06:44;7.95;;;4.22;;
52512;SDS011;38422;53.172;6.974;2023-11-21T14:09:21;8.38;;;4.03;;
52512;SDS011;38422;53.172;6.974;2023-11-21T14:11:50;6.65;;;4.03;;
52512;SDS011;38422;53.172;6.974;2023-11-21T14:14:22;9.38;;;4.30;;
52512;SDS011;38422;53.172;6.974;2023-11-21T14:16:53;10.40;;;4.57;;
52512;SDS011;38422;53.172;6.974;2023-11-21T14:19:20;8.93;;;4.40;;
52512;SDS011;38422;53.172;6.974;2023-11-21T14:21:47;9.27;;;4.38;;
52512;SDS011;38422;53.172;6.974;2023-11-21T14:24:15;8.55;;;4.47;;
52512;SDS011;38422;53.172;6.974;2023-11-21T14:26:44;7.22;;;4.55;;
52512;SDS011;38422;53.172;6.974;2023-11-21T14:29:12;8.57;;;4.25;;
52512;SDS011;38422;53.172;6.974;2023-11-21T14:31:41;7.50;;;3.92;;
52512;SDS011;38422;53.172;6.974;2023-11-21T14:34:07;6.78;;;3.75;;
52512;SDS011;38422;53.172;6.974;2023-11-21T14:36:33;8.13;;;4.22;;
52512;SDS011;38422;53.172;6.974;2023-11-21T14:39:00;8.57;;;4.53;;
52512;SDS011;38422;53.172;6.974;2023-11-21T14:41:25;8.30;;;4.13;;
52512;SDS011;38422;53.172;6.974;2023-11-21T14:43:54;9.27;;;4.10;;
52512;SDS011;38422;53.172;6.974;2023-11-21T14:46:20;7.82;;;4.28;;
52512;SDS011;38422;53.172;6.974;2023-11-21T14:48:46;10.15;;;4.22;;
52512;SDS011;38422;53.172;6.974;2023-11-21T14:51:32;11.35;;;4.85;;
52512;SDS011;38422;53.172;6.974;2023-11-21T14:54:16;6.88;;;4.05;;
52512;SDS011;38422;53.172;6.974;2023-11-21T14:56:51;6.43;;;3.85;;
52512;SDS011;38422;53.172;6.974;2023-11-21T14:59:17;6.43;;;3.97;;
52512;SDS011;38422;53.172;6.974;2023-11-21T15:01:43;8.07;;;4.30;;
52512;SDS011;38422;53.172;6.974;2023-11-21T15:04:21;8.82;;;4.43;;
52512;SDS011;38422;53.172;6.974;2023-11-21T15:07:04;12.88;;;5.18;;
52512;SDS011;38422;53.172;6.974;2023-11-21T15:09:30;10.65;;;4.90;;
52512;SDS011;38422;53.172;6.974;2023-11-21T15:11:56;9.18;;;5.03;;